Time;durP1;ratioP1;P1;durP2;ratioP2;P2;SDS_P1;SDS_P2;PMS_P1;PMS_P2;Temp;Humidity;BMP_temperature;BMP_pressure;BME280_temperature;BME280_humidity;BME280_pressure;Samples;Min_cycle;Max_cycle;Signal;HPM_P1;HPM_P2
2021/12/11 00:01:16;;;;;;;;;;;;;;;4.37;59.42;98740.12;4416351;32;20151;-94
2021/12/11 00:03:42;;;;;;;;;;;;;;;4.31;59.42;98747.12;4417722;32;19961;-93
2021/12/11 00:06:10;;;;;;;;;;;;;;;4.47;59.42;98747.59;4418320;32;19973;-94
2021/12/11 00:08:35;;;;;;;;;;;;;;;4.14;59.41;98753.53;4428874;32;20003;-94
2021/12/11 00:11:12;;;;;;;;;;;;;;;4.37;59.42;98760.75;4418176;32;20333;-94
2021/12/11 00:13:38;;;;;;;;;;;;;;;4.36;59.42;98762.47;4415399;32;19969;-93
2021/12/11 00:16:04;;;;;;;;;;;;;;;4.31;59.41;98783.19;4415589;32;19982;-92
2021/12/11 00:18:29;;;;;;;;;;;;;;;4.32;59.42;98774.59;4415394;32;20027;-93
2021/12/11 00:21:15;;;;;;;;;;;;;;;4.28;59.42;98772.13;4417084;32;20298;-91
2021/12/11 00:23:49;;;;;;;;;;;;;;;4.35;59.42;98781.37;4427530;32;19986;-90
2021/12/11 00:26:14;;;;;;;;;;;;;;;4.26;59.41;98782.47;4416067;32;19965;-91
2021/12/11 00:28:46;;;;;;;;;;;;;;;4.23;59.41;98785.06;4415169;32;20005;-91
2021/12/11 00:31:12;;;;;;;;;;;;;;;4.34;59.41;98792.56;4414779;32;19985;-91
2021/12/11 00:33:37;;;;;;;;;;;;;;;4.31;59.42;98795.22;4415367;32;19988;-92
2021/12/11 00:36:02;;;;;;;;;;;;;;;4.29;59.42;98804.72;4415342;32;20028;-91
2021/12/11 00:38:34;;;;;;;;;;;;;;;4.54;59.43;98805.03;4415654;32;19990;-91
2021/12/11 00:40:59;;;;;;;;;;;;;;;4.57;59.43;98808.38;4415771;32;19962;-93
2021/12/11 00:43:28;;;;;;;;;;;;;;;4.64;59.44;98819.37;4415011;32;19977;-93
2021/12/11 00:45:53;;;;;;;;;;;;;;;4.60;59.43;98816.03;4415367;32;19957;-93
2021/12/11 00:48:19;;;;;;;;;;;;;;;4.75;59.44;98816.56;4427646;32;19998;-90
2021/12/11 00:50:49;;;;;;;;;;;;;;;4.88;59.45;98821.38;4415104;32;19997;-92
2021/12/11 00:53:26;;;;;;;;;;;;;;;4.90;59.45;98831.66;4414717;32;20003;-90
2021/12/11 00:55:52;;;;;;;;;;;;;;;4.79;59.43;98831.94;4415381;32;20023;-90
2021/12/11 00:58:23;;;;;;;;;;;;;;;4.76;59.44;98844.88;4415209;32;19994;-91
2021/12/11 01:00:48;;;;;;;;;;;;;;;4.70;59.43;98845.00;4415253;32;20036;-90
2021/12/11 01:03:14;;;;;;;;;;;;;;;4.76;59.44;98844.03;4427305;32;19985;-89
2021/12/11 01:05:41;;;;;;;;;;;;;;;4.68;59.44;98849.34;4414980;32;20016;-88
2021/12/11 01:08:15;;;;;;;;;;;;;;;4.87;59.45;98834.31;4415095;32;20659;-92
2021/12/11 01:10:41;;;;;;;;;;;;;;;4.70;59.44;98841.56;4415877;32;20040;-93
2021/12/11 01:13:06;;;;;;;;;;;;;;;4.71;59.43;98844.13;4415341;32;20020;-85
2021/12/11 01:15:46;;;;;;;;;;;;;;;4.82;59.45;98844.75;4414731;32;19969;-87
2021/12/11 01:20:53;;;;;;;;;;;;;;;4.85;59.44;98854.12;4427551;32;20055;-87
2021/12/11 01:25:59;;;;;;;;;;;;;;;4.77;59.44;98858.63;4429199;32;19950;-88
2021/12/11 01:28:24;;;;;;;;;;;;;;;4.83;59.44;98861.06;4414356;32;19989;-86
2021/12/11 01:30:49;;;;;;;;;;;;;;;4.96;59.45;98854.72;4414359;32;20001;-87
2021/12/11 01:33:14;;;;;;;;;;;;;;;5.03;59.46;98851.13;4414196;32;19981;-86
2021/12/11 01:35:40;;;;;;;;;;;;;;;5.03;59.46;98853.69;4414808;32;20014;-87
2021/12/11 01:38:06;;;;;;;;;;;;;;;5.01;59.45;98849.47;4414311;32;20522;-86
2021/12/11 01:40:32;;;;;;;;;;;;;;;4.76;59.44;98852.63;4413922;32;20346;-86
2021/12/11 01:42:58;;;;;;;;;;;;;;;4.74;59.44;98866.44;4413840;32;19995;-86
2021/12/11 01:45:24;;;;;;;;;;;;;;;4.79;59.45;98865.44;4413270;32;20004;-83
2021/12/11 01:47:49;;;;;;;;;;;;;;;4.84;59.44;98870.47;4413512;32;20513;-85
2021/12/11 01:50:14;;;;;;;;;;;;;;;4.89;59.45;98869.50;4413931;32;20008;-86
2021/12/11 01:52:42;;;;;;;;;;;;;;;4.86;59.44;98877.31;4426694;32;20015;-86
2021/12/11 01:55:29;;;;;;;;;;;;;;;4.93;59.46;98886.59;4414335;32;20003;-86
2021/12/11 01:57:54;;;;;;;;;;;;;;;4.88;59.45;98887.56;4427230;32;19965;-87
2021/12/11 02:00:22;;;;;;;;;;;;;;;4.96;59.46;98874.50;4414188;32;20338;-89
2021/12/11 02:02:55;;;;;;;;;;;;;;;4.89;59.45;98868.62;4414300;32;20318;-88
2021/12/11 02:05:25;;;;;;;;;;;;;;;5.03;59.46;98865.75;4414536;32;19996;-88
2021/12/11 02:07:50;;;;;;;;;;;;;;;4.78;59.44;98873.22;4413986;32;19976;-91
2021/12/11 02:10:17;;;;;;;;;;;;;;;4.99;59.45;98867.56;4414267;32;20323;-90
2021/12/11 02:12:44;;;;;;;;;;;;;;;5.08;59.45;98859.59;4414209;32;19968;-90
2021/12/11 02:15:17;;;;;;;;;;;;;;;5.06;59.46;98856.22;4414275;32;20045;-89
2021/12/11 02:17:45;;;;;;;;;;;;;;;5.03;59.46;98848.53;4414190;32;19993;-89
2021/12/11 02:20:11;;;;;;;;;;;;;;;5.12;59.46;98847.47;4414406;32;19958;-88
2021/12/11 02:22:38;;;;;;;;;;;;;;;5.03;59.46;98847.69;4413872;32;20030;-88
2021/12/11 02:25:06;;;;;;;;;;;;;;;4.90;59.45;98845.41;4414024;32;19988;-88
2021/12/11 02:27:36;;;;;;;;;;;;;;;4.76;59.44;98852.63;4413746;32;19966;-88
2021/12/11 02:30:09;;;;;;;;;;;;;;;4.83;59.45;98853.31;4413470;32;20011;-87
2021/12/11 02:32:36;;;;;;;;;;;;;;;4.92;59.45;98841.03;4414069;32;20000;-88
2021/12/11 02:35:13;;;;;;;;;;;;;;;4.83;59.44;98848.16;4414131;32;20515;-88
2021/12/11 02:37:40;;;;;;;;;;;;;;;4.94;59.46;98854.75;4413761;32;20055;-89
2021/12/11 02:40:05;;;;;;;;;;;;;;;4.89;59.45;98858.31;4414191;32;20035;-88
2021/12/11 02:42:30;;;;;;;;;;;;;;;4.86;59.44;98848.09;4426254;32;19982;-87
2021/12/11 02:45:07;;;;;;;;;;;;;;;4.69;59.44;98847.63;4426611;32;20019;-89
2021/12/11 02:47:34;;;;;;;;;;;;;;;4.88;59.46;98844.59;4413938;32;20629;-87
2021/12/11 02:49:59;;;;;;;;;;;;;;;4.78;59.44;98850.00;4413727;32;20027;-89
2021/12/11 02:52:43;;;;;;;;;;;;;;;4.84;59.45;98847.28;4426617;32;20255;-90
2021/12/11 02:55:17;;;;;;;;;;;;;;;4.97;59.45;98847.81;4427975;32;19977;-91
2021/12/11 02:57:44;;;;;;;;;;;;;;;5.07;59.46;98845.00;4415630;32;20001;-91
2021/12/11 03:00:12;;;;;;;;;;;;;;;5.03;59.46;98834.81;4418722;32;20009;-89
2021/12/11 03:02:43;;;;;;;;;;;;;;;4.96;59.45;98841.81;4428851;32;19973;-91
2021/12/11 03:05:11;;;;;;;;;;;;;;;5.07;59.46;98826.09;4416661;32;19969;-90
2021/12/11 03:07:39;;;;;;;;;;;;;;;5.12;59.46;98825.09;4416507;32;20001;-90
2021/12/11 03:10:06;;;;;;;;;;;;;;;5.05;59.46;98825.28;4415722;32;19991;-90
2021/12/11 03:12:31;;;;;;;;;;;;;;;4.99;59.45;98828.88;4415740;32;19981;-88
2021/12/11 03:14:56;;;;;;;;;;;;;;;5.03;59.46;98827.06;4415455;32;20487;-91
2021/12/11 03:17:21;;;;;;;;;;;;;;;4.98;59.45;98845.25;4415764;32;19990;-90
2021/12/11 03:19:47;;;;;;;;;;;;;;;4.86;59.44;98843.78;4415806;32;19993;-90
2021/12/11 03:22:14;;;;;;;;;;;;;;;4.99;59.45;98853.81;4415980;32;20369;-91
2021/12/11 03:24:39;;;;;;;;;;;;;;;4.79;59.45;98868.03;4416140;32;19985;-90
2021/12/11 03:27:05;;;;;;;;;;;;;;;4.98;59.45;98875.34;4415981;32;20289;-90
2021/12/11 03:29:30;;;;;;;;;;;;;;;4.96;59.45;98875.34;4415607;32;20110;-90
2021/12/11 03:31:55;;;;;;;;;;;;;;;4.87;59.46;98889.31;4415637;32;20027;-89
2021/12/11 03:34:21;;;;;;;;;;;;;;;5.01;59.46;98889.00;4415942;32;19982;-89
2021/12/11 03:36:46;;;;;;;;;;;;;;;5.19;59.47;98892.84;4415592;32;20009;-89
2021/12/11 03:39:13;;;;;;;;;;;;;;;5.23;59.46;98902.25;4415577;32;19985;-88
2021/12/11 03:41:39;;;;;;;;;;;;;;;5.28;59.47;98907.28;4415581;32;19985;-89
2021/12/11 03:44:04;;;;;;;;;;;;;;;5.32;59.48;98901.16;4415241;32;19993;-87
2021/12/11 03:46:30;;;;;;;;;;;;;;;5.47;59.48;98906.81;4415010;32;20243;-85
2021/12/11 03:48:56;;;;;;;;;;;;;;;5.38;59.47;98903.59;4414642;32;20571;-86
2021/12/11 03:51:23;;;;;;;;;;;;;;;5.43;59.48;98912.06;4414974;32;19995;-86
2021/12/11 03:53:48;;;;;;;;;;;;;;;5.37;59.47;98907.91;4415309;32;20362;-87
2021/12/11 03:56:14;;;;;;;;;;;;;;;5.56;59.49;98903.13;4422935;32;19989;-87
2021/12/11 03:58:39;;;;;;;;;;;;;;;5.52;59.48;98906.69;4443489;32;19997;-88
2021/12/11 04:01:07;;;;;;;;;;;;;;;5.58;59.49;98905.69;4430416;32;19997;-87
2021/12/11 04:03:32;;;;;;;;;;;;;;;5.70;59.50;98893.31;4430642;32;20004;-86
2021/12/11 04:05:58;;;;;;;;;;;;;;;5.73;59.49;98892.38;4429727;32;19997;-87
2021/12/11 04:08:24;;;;;;;;;;;;;;;5.35;59.47;98891.59;4430609;32;20054;-88
2021/12/11 04:10:49;;;;;;;;;;;;;;;5.37;59.47;98889.00;4430949;32;19965;-88
2021/12/11 04:13:14;;;;;;;;;;;;;;;5.33;59.48;98895.13;4430642;32;19999;-88
2021/12/11 04:15:40;;;;;;;;;;;;;;;5.15;59.46;98899.81;4430904;32;20020;-88
2021/12/11 04:18:05;;;;;;;;;;;;;;;5.00;59.45;98901.94;4430757;32;20031;-87
2021/12/11 04:20:31;;;;;;;;;;;;;;;4.84;59.45;98916.91;4430359;32;20248;-88
2021/12/11 04:22:56;;;;;;;;;;;;;;;4.91;59.44;98913.28;4443564;32;19969;-87
2021/12/11 04:25:22;;;;;;;;;;;;;;;4.83;59.44;98907.47;4430428;32;19985;-88
2021/12/11 04:27:48;;;;;;;;;;;;;;;4.60;59.43;98911.37;4430427;32;19995;-88
2021/12/11 04:30:13;;;;;;;;;;;;;;;4.66;59.44;98923.28;4430104;32;22692;-88
2021/12/11 04:32:39;;;;;;;;;;;;;;;4.78;59.44;98919.63;4443692;32;20258;-87
2021/12/11 04:35:04;;;;;;;;;;;;;;;4.84;59.44;98922.06;4430436;32;19982;-88
2021/12/11 04:37:31;;;;;;;;;;;;;;;4.88;59.45;98923.69;4430589;32;20270;-89
2021/12/11 04:40:03;;;;;;;;;;;;;;;4.86;59.44;98935.75;4430704;32;19993;-91
2021/12/11 04:44:54;;;;;;;;;;;;;;;4.96;59.45;98928.66;4443465;32;20030;-92
2021/12/11 04:47:32;;;;;;;;;;;;;;;4.91;59.45;98928.75;4443391;32;20005;-91
2021/12/11 04:50:03;;;;;;;;;;;;;;;4.80;59.45;98926.44;4431754;32;19981;-91
2021/12/11 04:52:34;;;;;;;;;;;;;;;4.85;59.44;98929.75;4431413;32;20354;-91
2021/12/11 04:55:24;;;;;;;;;;;;;;;4.88;59.45;98923.69;4443242;32;20626;-90
2021/12/11 05:11:15;;;;;;;;;;;;;;;4.69;59.44;98954.16;4444109;32;20000;-88
2021/12/11 05:13:41;;;;;;;;;;;;;;;4.65;59.44;98956.84;4430585;32;19981;-89
2021/12/11 05:16:07;;;;;;;;;;;;;;;4.50;59.42;98968.31;4430290;32;20000;-88
2021/12/11 05:18:32;;;;;;;;;;;;;;;4.66;59.44;98963.69;4442492;32;20967;-88
2021/12/11 05:20:59;;;;;;;;;;;;;;;4.53;59.43;98963.94;4430146;32;20028;-87
2021/12/11 05:23:24;;;;;;;;;;;;;;;4.60;59.43;98965.53;4430246;32;20003;-88
2021/12/11 05:25:49;;;;;;;;;;;;;;;4.62;59.43;98965.47;4429906;32;19992;-88
2021/12/11 05:28:15;;;;;;;;;;;;;;;4.52;59.43;98970.00;4429854;32;20016;-89
2021/12/11 05:30:41;;;;;;;;;;;;;;;4.49;59.42;98966.59;4442470;32;22158;-89
2021/12/11 05:33:07;;;;;;;;;;;;;;;4.37;59.42;98962.56;4430054;32;19985;-88
2021/12/11 05:35:34;;;;;;;;;;;;;;;4.38;59.42;98969.41;4442915;32;19997;-89
2021/12/11 05:37:59;;;;;;;;;;;;;;;4.24;59.41;98972.22;4430058;32;20012;-88
2021/12/11 05:40:26;;;;;;;;;;;;;;;4.12;59.40;98980.19;4429964;32;19969;-88
2021/12/11 05:42:51;;;;;;;;;;;;;;;4.13;59.41;98988.78;4430219;32;20026;-88
2021/12/11 05:45:16;;;;;;;;;;;;;;;4.15;59.41;98982.72;4430198;32;20285;-88
2021/12/11 05:47:42;;;;;;;;;;;;;;;4.05;59.39;98988.06;4429546;32;21475;-88
2021/12/11 05:50:08;;;;;;;;;;;;;;;4.00;59.40;98986.41;4430379;32;20262;-88
2021/12/11 05:52:33;;;;;;;;;;;;;;;4.04;59.40;98986.38;4430207;32;20001;-88
2021/12/11 05:54:58;;;;;;;;;;;;;;;3.99;59.40;98992.44;4429637;32;20315;-88
2021/12/11 05:57:26;;;;;;;;;;;;;;;4.14;59.41;98995.63;4429783;32;19993;-89
2021/12/11 05:59:51;;;;;;;;;;;;;;;4.00;59.40;99007.00;4429951;32;19992;-88
2021/12/11 06:02:23;;;;;;;;;;;;;;;4.17;59.41;99004.13;4429475;32;23196;-90
2021/12/11 06:04:49;;;;;;;;;;;;;;;4.11;59.40;99014.56;4442594;32;20035;-90
2021/12/11 06:07:15;;;;;;;;;;;;;;;4.08;59.40;99024.91;4430902;32;20001;-90
2021/12/11 06:09:42;;;;;;;;;;;;;;;4.17;59.41;99034.19;4429662;32;20368;-91
2021/12/11 06:12:08;;;;;;;;;;;;;;;4.15;59.41;99044.53;4430063;32;19984;-89
2021/12/11 06:14:33;;;;;;;;;;;;;;;4.16;59.41;99047.94;4429788;32;20342;-87
2021/12/11 06:16:59;;;;;;;;;;;;;;;4.15;59.41;99053.97;4429434;32;20008;-88
2021/12/11 06:19:25;;;;;;;;;;;;;;;4.14;59.41;99076.31;4429322;32;19996;-88
2021/12/11 06:21:51;;;;;;;;;;;;;;;4.14;59.41;99090.91;4429707;32;20555;-88
2021/12/11 06:24:16;;;;;;;;;;;;;;;3.99;59.40;99079.97;4429614;32;20009;-88
2021/12/11 06:26:42;;;;;;;;;;;;;;;4.23;59.41;99086.44;4429491;32;19993;-87
2021/12/11 06:29:07;;;;;;;;;;;;;;;4.40;59.42;99093.03;4429740;32;20037;-87
2021/12/11 06:31:32;;;;;;;;;;;;;;;4.44;59.43;99089.53;4431409;32;20031;-88
2021/12/11 06:33:57;;;;;;;;;;;;;;;4.45;59.42;99099.81;4430812;32;24219;-88
2021/12/11 06:36:26;;;;;;;;;;;;;;;4.43;59.42;99099.00;4431601;32;20106;-88
2021/12/11 06:38:53;;;;;;;;;;;;;;;4.42;59.43;99107.59;4431331;32;19991;-88
2021/12/11 06:41:19;;;;;;;;;;;;;;;4.34;59.41;99116.34;4430774;32;20707;-88
2021/12/11 06:43:44;;;;;;;;;;;;;;;4.42;59.42;99119.63;4431483;32;20030;-89
2021/12/11 06:46:09;;;;;;;;;;;;;;;4.36;59.42;99123.19;4431037;32;20034;-88
2021/12/11 06:48:34;;;;;;;;;;;;;;;4.25;59.41;99132.78;4430975;32;20269;-87
2021/12/11 06:51:00;;;;;;;;;;;;;;;3.95;59.39;99123.84;4430488;32;29460;-88
2021/12/11 06:53:32;;;;;;;;;;;;;;;4.06;59.41;99127.09;4431275;32;19998;-89
2021/12/11 06:55:57;;;;;;;;;;;;;;;4.10;59.40;99136.47;4431270;32;20001;-88
2021/12/11 06:58:22;;;;;;;;;;;;;;;4.08;59.40;99140.81;4430731;32;19977;-88
2021/12/11 07:00:47;;;;;;;;;;;;;;;4.21;59.41;99144.88;4430700;32;20023;-88
2021/12/11 07:03:12;;;;;;;;;;;;;;;4.03;59.40;99157.22;4430301;32;20824;-89
2021/12/11 07:05:38;;;;;;;;;;;;;;;4.03;59.40;99164.94;4430574;32;20005;-89
2021/12/11 07:08:06;;;;;;;;;;;;;;;4.08;59.40;99161.41;4430875;32;20029;-89
2021/12/11 07:10:32;;;;;;;;;;;;;;;4.21;59.41;99169.78;4431140;32;20125;-91
2021/12/11 07:12:57;;;;;;;;;;;;;;;4.33;59.41;99177.34;4430749;32;20281;-89
2021/12/11 07:15:22;;;;;;;;;;;;;;;4.24;59.41;99183.47;4430986;32;19992;-90
2021/12/11 07:17:47;;;;;;;;;;;;;;;4.39;59.42;99194.41;4430833;32;19973;-88
2021/12/11 07:20:13;;;;;;;;;;;;;;;4.54;59.43;99195.03;4431094;32;20361;-88
2021/12/11 07:22:40;;;;;;;;;;;;;;;4.72;59.43;99208.47;4431065;32;19988;-90
2021/12/11 07:25:10;;;;;;;;;;;;;;;4.53;59.43;99211.38;4431268;32;20686;-91
2021/12/11 07:27:35;;;;;;;;;;;;;;;4.43;59.43;99220.09;4430808;32;20032;-87
2021/12/11 07:30:00;;;;;;;;;;;;;;;4.61;59.43;99224.97;4431772;32;19989;-91
2021/12/11 07:32:25;;;;;;;;;;;;;;;4.54;59.43;99228.53;4443289;32;20008;-89
2021/12/11 07:34:51;;;;;;;;;;;;;;;4.65;59.44;99228.34;4430439;32;21968;-91
2021/12/11 07:37:16;;;;;;;;;;;;;;;4.72;59.45;99229.09;4431187;32;20023;-91
2021/12/11 07:39:41;;;;;;;;;;;;;;;4.86;59.44;99234.88;4431620;32;19985;-91
2021/12/11 07:42:07;;;;;;;;;;;;;;;4.78;59.44;99247.91;4431373;32;21657;-92
2021/12/11 07:44:32;;;;;;;;;;;;;;;4.83;59.44;99235.78;4433589;32;20255;-90
2021/12/11 07:46:59;;;;;;;;;;;;;;;5.00;59.45;99248.38;4431980;32;20054;-89
2021/12/11 07:49:24;;;;;;;;;;;;;;;5.00;59.45;99234.66;4431565;32;20852;-92
2021/12/11 07:51:50;;;;;;;;;;;;;;;4.83;59.44;99240.09;4431207;32;20084;-92
2021/12/11 07:54:15;;;;;;;;;;;;;;;4.71;59.43;99233.38;4431208;32;20038;-92
2021/12/11 07:56:41;;;;;;;;;;;;;;;4.41;59.42;99237.31;4431193;32;19981;-92
2021/12/11 07:59:06;;;;;;;;;;;;;;;4.23;59.42;99242.72;4430971;32;19996;-90
2021/12/11 08:01:33;;;;;;;;;;;;;;;4.35;59.42;99234.84;4431530;32;20270;-91
2021/12/11 08:04:00;;;;;;;;;;;;;;;4.34;59.41;99230.56;4430939;32;20730;-91
2021/12/11 08:06:25;;;;;;;;;;;;;;;4.23;59.41;99237.59;4431060;32;19973;-92
2021/12/11 08:08:50;;;;;;;;;;;;;;;4.36;59.43;99239.13;4431381;32;20034;-91
2021/12/11 08:11:17;;;;;;;;;;;;;;;4.37;59.42;99237.41;4431503;32;20009;-91
2021/12/11 08:13:44;;;;;;;;;;;;;;;4.50;59.42;99236.34;4431319;32;20058;-91
2021/12/11 08:16:09;;;;;;;;;;;;;;;4.47;59.42;99244.09;4431081;32;19973;-91
2021/12/11 08:18:34;;;;;;;;;;;;;;;4.54;59.42;99244.00;4432010;32;19996;-91
2021/12/11 08:20:59;;;;;;;;;;;;;;;4.70;59.44;99246.31;4430811;32;21389;-91
2021/12/11 08:23:25;;;;;;;;;;;;;;;4.71;59.43;99248.00;4430654;32;19989;-89
2021/12/11 08:25:50;;;;;;;;;;;;;;;4.58;59.43;99258.53;4431071;32;19981;-92
2021/12/11 08:28:16;;;;;;;;;;;;;;;4.70;59.43;99257.47;4457781;32;19985;-91
2021/12/11 08:30:42;;;;;;;;;;;;;;;4.52;59.43;99260.38;4430843;32;19981;-92
2021/12/11 08:33:07;;;;;;;;;;;;;;;4.55;59.43;99260.31;4430935;32;20039;-91
2021/12/11 08:35:33;;;;;;;;;;;;;;;4.76;59.44;99264.28;4430304;32;20349;-92
2021/12/11 08:37:58;;;;;;;;;;;;;;;4.63;59.43;99268.75;4430489;32;19985;-91
2021/12/11 08:40:24;;;;;;;;;;;;;;;4.42;59.42;99269.09;4430712;32;20009;-92
2021/12/11 08:42:50;;;;;;;;;;;;;;;4.46;59.42;99269.00;4430583;32;20009;-91
2021/12/11 08:45:22;;;;;;;;;;;;;;;4.36;59.42;99269.19;4430715;32;19988;-91
2021/12/11 08:47:47;;;;;;;;;;;;;;;4.45;59.42;99267.31;4431457;32;20058;-91
2021/12/11 08:50:14;;;;;;;;;;;;;;;4.49;59.42;99273.25;4431127;32;20005;-89
2021/12/11 08:52:40;;;;;;;;;;;;;;;4.35;59.41;99264.91;4429780;32;20398;-91
2021/12/11 08:55:06;;;;;;;;;;;;;;;4.22;59.41;99271.94;4430306;32;20033;-91
2021/12/11 08:57:32;;;;;;;;;;;;;;;4.38;59.42;99277.75;4429700;32;20003;-90
2021/12/11 08:59:59;;;;;;;;;;;;;;;4.29;59.42;99278.75;4430042;32;19989;-90
2021/12/11 09:02:32;;;;;;;;;;;;;;;4.23;59.41;99283.94;4430090;32;20739;-91
2021/12/11 09:04:59;;;;;;;;;;;;;;;4.15;59.41;99283.22;4430573;32;19973;-91
2021/12/11 09:07:27;;;;;;;;;;;;;;;4.28;59.42;99292.50;4444291;32;19994;-92
2021/12/11 09:09:54;;;;;;;;;;;;;;;4.17;59.41;99286.63;4430397;32;19993;-91
2021/12/11 09:12:29;;;;;;;;;;;;;;;4.24;59.41;99293.38;4430428;32;20012;-91
2021/12/11 09:15:02;;;;;;;;;;;;;;;4.25;59.41;99288.22;4443165;32;20024;-90
2021/12/11 09:17:29;;;;;;;;;;;;;;;4.20;59.41;99297.72;4430362;32;19953;-91
2021/12/11 09:19:56;;;;;;;;;;;;;;;4.18;59.41;99308.94;4429854;32;19993;-91
2021/12/11 09:22:25;;;;;;;;;;;;;;;4.19;59.40;99302.91;4430366;32;20023;-91
2021/12/11 09:24:54;;;;;;;;;;;;;;;4.07;59.40;99319.38;4430294;32;19973;-91
2021/12/11 09:27:19;;;;;;;;;;;;;;;4.14;59.41;99315.84;4430474;32;19980;-91
2021/12/11 09:30:12;;;;;;;;;;;;;;;4.00;59.40;99320.31;4442919;32;20004;-90
2021/12/11 09:32:44;;;;;;;;;;;;;;;4.17;59.41;99322.69;4440892;32;19989;-91
2021/12/11 09:35:21;;;;;;;;;;;;;;;4.21;59.41;99332.06;4430311;32;20348;-91
2021/12/11 09:37:47;;;;;;;;;;;;;;;4.12;59.40;99327.03;4430522;32;19957;-91
2021/12/11 09:40:25;;;;;;;;;;;;;;;4.36;59.42;99329.31;4430514;32;20056;-90
2021/12/11 09:42:50;;;;;;;;;;;;;;;4.31;59.42;99336.25;4443056;32;20026;-93
2021/12/11 09:45:20;;;;;;;;;;;;;;;4.27;59.42;99344.91;4442801;32;20306;-92
2021/12/11 09:47:52;;;;;;;;;;;;;;;4.45;59.42;99343.78;4430098;32;19997;-92
2021/12/11 09:50:19;;;;;;;;;;;;;;;4.51;59.43;99341.97;4430675;32;19985;-91
2021/12/11 09:52:46;;;;;;;;;;;;;;;4.61;59.43;99335.81;4429864;32;20068;-89
2021/12/11 09:55:16;;;;;;;;;;;;;;;4.60;59.43;99322.94;4457535;32;19976;-89
2021/12/11 09:57:42;;;;;;;;;;;;;;;4.38;59.42;99324.13;4429688;32;20007;-90
2021/12/11 10:00:10;;;;;;;;;;;;;;;4.21;59.41;99337.22;4441917;32;20029;-92
2021/12/11 10:02:35;;;;;;;;;;;;;;;4.48;59.42;99326.53;4428440;32;19993;-92
2021/12/11 10:05:01;;;;;;;;;;;;;;;4.34;59.41;99309.59;4427640;32;19973;-91
2021/12/11 10:07:36;;;;;;;;;;;;;;;4.29;59.42;99310.50;4441633;32;19977;-93
2021/12/11 10:10:05;;;;;;;;;;;;;;;4.39;59.42;99311.22;4429719;32;20001;-92
2021/12/11 10:12:32;;;;;;;;;;;;;;;4.32;59.41;99307.03;4443198;32;20016;-93
2021/12/11 10:15:16;;;;;;;;;;;;;;;4.23;59.41;99318.28;4430110;32;21074;-93
2021/12/11 10:17:43;;;;;;;;;;;;;;;4.15;59.41;99306.41;4443227;32;19996;-92
2021/12/11 10:20:15;;;;;;;;;;;;;;;4.30;59.42;99308.78;4431633;32;20322;-91
2021/12/11 10:22:40;;;;;;;;;;;;;;;4.21;59.41;99314.03;4431839;32;19980;-93
2021/12/11 10:25:07;;;;;;;;;;;;;;;4.40;59.42;99306.91;4430419;32;20001;-92
2021/12/11 10:27:32;;;;;;;;;;;;;;;4.45;59.42;99305.97;4430904;32;20520;-92
2021/12/11 10:29:58;;;;;;;;;;;;;;;4.47;59.42;99304.22;4429560;32;19989;-92
2021/12/11 10:32:25;;;;;;;;;;;;;;;4.42;59.43;99318.91;4429756;32;20302;-92
2021/12/11 10:34:51;;;;;;;;;;;;;;;4.11;59.40;99317.63;4429703;32;20029;-92
2021/12/11 10:37:17;;;;;;;;;;;;;;;4.22;59.41;99326.91;4429887;32;20041;-92
2021/12/11 10:39:44;;;;;;;;;;;;;;;4.16;59.41;99329.56;4429810;32;20114;-92
2021/12/11 10:42:09;;;;;;;;;;;;;;;4.21;59.41;99334.66;4429540;32;19996;-93
2021/12/11 10:44:36;;;;;;;;;;;;;;;4.26;59.41;99333.75;4430057;32;20011;-92
2021/12/11 10:47:05;;;;;;;;;;;;;;;4.27;59.42;99326.88;4429618;32;20008;-92
2021/12/11 10:49:31;;;;;;;;;;;;;;;4.43;59.43;99332.63;4429711;32;19981;-92
2021/12/11 10:51:57;;;;;;;;;;;;;;;4.47;59.42;99326.56;4429519;32;20012;-93
2021/12/11 10:54:23;;;;;;;;;;;;;;;4.34;59.41;99323.31;4429613;32;19985;-92
2021/12/11 10:56:48;;;;;;;;;;;;;;;4.45;59.42;99326.59;4429465;32;19973;-92
2021/12/11 10:59:21;;;;;;;;;;;;;;;4.36;59.43;99319.00;4429605;32;20016;-92
2021/12/11 11:01:46;;;;;;;;;;;;;;;4.44;59.43;99317.16;4430357;32;20004;-92
2021/12/11 11:04:13;;;;;;;;;;;;;;;4.62;59.43;99314.31;4442144;32;20271;-92
2021/12/11 11:06:40;;;;;;;;;;;;;;;4.61;59.43;99315.19;4429278;32;19992;-92
2021/12/11 11:09:05;;;;;;;;;;;;;;;4.82;59.45;99310.59;4429464;32;19995;-90
2021/12/11 11:11:30;;;;;;;;;;;;;;;4.85;59.44;99307.94;4429021;32;19996;-92
2021/12/11 11:13:56;;;;;;;;;;;;;;;4.56;59.43;99303.25;4429146;32;20012;-92
2021/12/11 11:16:21;;;;;;;;;;;;;;;4.81;59.45;99301.16;4431180;32;19985;-92
2021/12/11 11:18:47;;;;;;;;;;;;;;;4.79;59.45;99308.91;4432241;32;20317;-92
2021/12/11 11:21:13;;;;;;;;;;;;;;;4.83;59.44;99307.13;4444218;32;20318;-91
2021/12/11 11:23:39;;;;;;;;;;;;;;;4.98;59.45;99308.63;4431175;32;20029;-91
2021/12/11 11:26:05;;;;;;;;;;;;;;;4.58;59.43;99310.09;4431309;32;20276;-92
2021/12/11 11:28:33;;;;;;;;;;;;;;;4.54;59.43;99303.28;4431153;32;19961;-92
2021/12/11 11:30:59;;;;;;;;;;;;;;;4.35;59.42;99304.41;4431395;32;20378;-93
2021/12/11 11:33:25;;;;;;;;;;;;;;;4.44;59.42;99304.25;4432644;32;20000;-91
2021/12/11 11:35:50;;;;;;;;;;;;;;;4.48;59.42;99310.22;4444520;32;19996;-92
2021/12/11 11:38:17;;;;;;;;;;;;;;;4.42;59.42;99305.16;4430615;32;20011;-92
2021/12/11 11:40:44;;;;;;;;;;;;;;;4.56;59.43;99304.09;4444122;32;20046;-92
2021/12/11 11:43:10;;;;;;;;;;;;;;;4.52;59.43;99301.59;4430920;32;19969;-93
2021/12/11 11:45:35;;;;;;;;;;;;;;;4.52;59.43;99297.28;4430752;32;20059;-92
2021/12/11 11:48:00;;;;;;;;;;;;;;;4.36;59.42;99298.38;4430560;32;19993;-93
2021/12/11 11:50:28;;;;;;;;;;;;;;;4.50;59.43;99306.78;4432494;32;19997;-92
2021/12/11 11:52:53;;;;;;;;;;;;;;;4.68;59.44;99315.09;4430713;32;19990;-91
2021/12/11 11:55:20;;;;;;;;;;;;;;;4.68;59.44;99317.66;4430905;32;20303;-92
2021/12/11 11:57:47;;;;;;;;;;;;;;;4.96;59.45;99318.94;4430738;32;20045;-90
2021/12/11 12:00:19;;;;;;;;;;;;;;;4.99;59.45;99329.22;4443908;32;19969;-92
2021/12/11 12:02:44;;;;;;;;;;;;;;;5.15;59.46;99340.13;4443240;32;19992;-92
2021/12/11 12:05:09;;;;;;;;;;;;;;;5.27;59.47;99344.25;4430893;32;19985;-93
2021/12/11 12:07:35;;;;;;;;;;;;;;;5.39;59.48;99341.44;4427186;32;20027;-89
2021/12/11 12:10:04;;;;;;;;;;;;;;;5.51;59.48;99341.22;4430114;32;20046;-90
2021/12/11 12:12:29;;;;;;;;;;;;;;;5.42;59.48;99342.22;4430142;32;19981;-92
2021/12/11 12:14:55;;;;;;;;;;;;;;;5.19;59.47;99349.50;4443133;32;20065;-90
2021/12/11 12:17:21;;;;;;;;;;;;;;;5.42;59.48;99355.13;4430182;32;20004;-89
2021/12/11 12:19:46;;;;;;;;;;;;;;;5.32;59.48;99351.03;4429954;32;20015;-89
2021/12/11 12:22:12;;;;;;;;;;;;;;;5.52;59.48;99348.94;4430244;32;20008;-90
2021/12/11 12:24:38;;;;;;;;;;;;;;;5.52;59.48;99355.84;4429969;32;19962;-89
2021/12/11 12:27:05;;;;;;;;;;;;;;;5.70;59.50;99360.69;4429030;32;20069;-93
2021/12/11 12:29:30;;;;;;;;;;;;;;;5.48;59.48;99354.19;4429978;32;19993;-90
2021/12/11 12:31:57;;;;;;;;;;;;;;;5.67;59.49;99358.13;4429906;32;19999;-91
2021/12/11 12:34:22;;;;;;;;;;;;;;;5.79;59.50;99355.31;4430244;32;20005;-90
2021/12/11 12:36:48;;;;;;;;;;;;;;;5.99;59.51;99352.41;4429532;32;20851;-92
2021/12/11 12:39:13;;;;;;;;;;;;;;;6.01;59.51;99348.03;4430615;32;20440;-92
2021/12/11 12:41:42;;;;;;;;;;;;;;;6.10;59.52;99342.69;4430405;32;19977;-91
2021/12/11 12:44:17;;;;;;;;;;;;;;;6.20;59.52;99345.09;4430235;32;19957;-91
2021/12/11 12:46:51;;;;;;;;;;;;;;;6.53;59.54;99348.69;4429997;32;20037;-91
2021/12/11 12:49:16;;;;;;;;;;;;;;;6.54;59.54;99340.88;4429720;32;19993;-91
2021/12/11 12:51:41;;;;;;;;;;;;;;;6.58;59.54;99337.34;4429601;32;19985;-90
2021/12/11 12:54:07;;;;;;;;;;;;;;;6.38;59.53;99336.94;4429797;32;19982;-92
2021/12/11 12:56:34;;;;;;;;;;;;;;;6.26;59.52;99332.03;4430392;32;20033;-92
2021/12/11 12:59:20;;;;;;;;;;;;;;;6.18;59.52;99324.47;4430469;32;19969;-91
2021/12/11 13:01:54;;;;;;;;;;;;;;;6.12;59.51;99342.66;4442685;32;20025;-92
2021/12/11 13:04:21;;;;;;;;;;;;;;;5.98;59.50;99336.94;4430546;32;19957;-91
2021/12/11 13:06:49;;;;;;;;;;;;;;;6.04;59.51;99334.22;4430563;32;20003;-92
2021/12/11 13:09:20;;;;;;;;;;;;;;;5.93;59.51;99333.59;4430719;32;20709;-91
2021/12/11 13:11:50;;;;;;;;;;;;;;;5.56;59.49;99331.66;4430522;32;19949;-92
2021/12/11 13:14:15;;;;;;;;;;;;;;;5.74;59.49;99336.50;4430694;32;19977;-92
2021/12/11 13:16:43;;;;;;;;;;;;;;;5.72;59.50;99332.25;4430634;32;20022;-93
2021/12/11 13:19:10;;;;;;;;;;;;;;;5.66;59.49;99338.34;4430529;32;20016;-93